sensor_id;sensor_type;location;lat;lon;timestamp;pressure;altitude;pressure_sealevel;temperature;humidity
9855;BME280;4966;48.112;9.282;2024-03-23T00:52:53;94173.38;;;5.91;71.41
9855;BME280;4966;48.112;9.282;2024-03-23T00:55:19;94165.44;;;6.04;71.66
9855;BME280;4966;48.112;9.282;2024-03-23T00:57:44;94175.13;;;5.87;72.00
9855;BME280;4966;48.112;9.282;2024-03-23T01:00:10;94161.63;;;5.79;72.54
9855;BME280;4966;48.112;9.282;2024-03-23T01:02:36;94157.97;;;5.74;72.52
9855;BME280;4966;48.112;9.282;2024-03-23T01:05:02;94157.03;;;5.70;73.00
9855;BME280;4966;48.112;9.282;2024-03-23T01:07:27;94156.25;;;5.61;73.92
9855;BME280;4966;48.112;9.282;2024-03-23T01:09:52;94155.44;;;5.69;73.99
9855;BME280;4966;48.112;9.282;2024-03-23T01:12:18;94141.94;;;5.78;73.54
9855;BME280;4966;48.112;9.282;2024-03-23T01:14:43;94149.09;;;5.74;73.48
9855;BME280;4966;48.112;9.282;2024-03-23T01:17:09;94153.69;;;5.65;73.97
9855;BME280;4966;48.112;9.282;2024-03-23T01:19:34;94146.38;;;5.74;73.95
9855;BME280;4966;48.112;9.282;2024-03-23T01:22:00;94153.03;;;5.85;73.01
9855;BME280;4966;48.112;9.282;2024-03-23T01:24:25;94150.81;;;5.96;72.16
9855;BME280;4966;48.112;9.282;2024-03-23T01:26:50;94138.72;;;5.93;71.96
9855;BME280;4966;48.112;9.282;2024-03-23T01:29:16;94141.94;;;5.87;71.58
9855;BME280;4966;48.112;9.282;2024-03-23T01:31:41;94134.97;;;5.77;72.88
9855;BME280;4966;48.112;9.282;2024-03-23T01:34:06;94136.06;;;5.67;72.93
9855;BME280;4966;48.112;9.282;2024-03-23T01:36:32;94133.06;;;5.60;73.89
9855;BME280;4966;48.112;9.282;2024-03-23T01:38:58;94131.97;;;5.70;73.65
9855;BME280;4966;48.112;9.282;2024-03-23T01:41:24;94134.50;;;5.75;73.38
9855;BME280;4966;48.112;9.282;2024-03-23T01:43:50;94128.88;;;5.89;72.52
9855;BME280;4966;48.112;9.282;2024-03-23T01:46:15;94133.53;;;5.80;71.84
9855;BME280;4966;48.112;9.282;2024-03-23T01:48:41;94127.97;;;5.67;72.54
9855;BME280;4966;48.112;9.282;2024-03-23T01:51:07;94131.31;;;5.64;72.64
9855;BME280;4966;48.112;9.282;2024-03-23T01:53:32;94122.44;;;5.55;73.76
9855;BME280;4966;48.112;9.282;2024-03-23T01:55:58;94111.78;;;5.67;73.24
9855;BME280;4966;48.112;9.282;2024-03-23T01:58:23;94108.66;;;5.57;73.58
9855;BME280;4966;48.112;9.282;2024-03-23T02:00:49;94110.25;;;5.31;74.79
9855;BME280;4966;48.112;9.282;2024-03-23T02:03:24;94102.94;;;5.41;74.96
9855;BME280;4966;48.112;9.282;2024-03-23T02:05:50;94098.47;;;5.62;74.25
9855;BME280;4966;48.112;9.282;2024-03-23T02:08:20;94076.75;;;5.50;75.04
9855;BME280;4966;48.112;9.282;2024-03-23T02:10:47;94073.56;;;5.65;74.75
9855;BME280;4966;48.112;9.282;2024-03-23T02:13:14;94054.81;;;5.60;74.92
9855;BME280;4966;48.112;9.282;2024-03-23T02:15:39;94066.31;;;5.40;76.29
9855;BME280;4966;48.112;9.282;2024-03-23T02:18:05;94063.56;;;5.57;75.53
9855;BME280;4966;48.112;9.282;2024-03-23T02:20:30;94061.47;;;5.71;74.22
9855;BME280;4966;48.112;9.282;2024-03-23T02:22:55;94057.22;;;5.53;75.03
9855;BME280;4966;48.112;9.282;2024-03-23T02:25:21;94065.00;;;5.54;74.88
9855;BME280;4966;48.112;9.282;2024-03-23T02:27:46;94055.41;;;5.74;74.42
9855;BME280;4966;48.112;9.282;2024-03-23T02:30:12;94059.22;;;5.82;73.45
9855;BME280;4966;48.112;9.282;2024-03-23T02:32:37;94046.34;;;5.88;72.46
9855;BME280;4966;48.112;9.282;2024-03-23T02:35:02;94047.78;;;5.76;72.64
9855;BME280;4966;48.112;9.282;2024-03-23T02:37:28;94036.66;;;5.87;72.53
9855;BME280;4966;48.112;9.282;2024-03-23T02:39:53;94029.63;;;5.56;73.70
9855;BME280;4966;48.112;9.282;2024-03-23T02:42:18;94026.28;;;5.59;74.09
9855;BME280;4966;48.112;9.282;2024-03-23T02:44:44;94018.00;;;5.64;74.31
9855;BME280;4966;48.112;9.282;2024-03-23T02:47:10;94015.94;;;5.61;75.05
9855;BME280;4966;48.112;9.282;2024-03-23T02:49:35;94011.03;;;5.63;74.58
9855;BME280;4966;48.112;9.282;2024-03-23T02:52:01;94005.13;;;5.70;73.71
9855;BME280;4966;48.112;9.282;2024-03-23T02:54:26;94008.16;;;5.68;74.15
9855;BME280;4966;48.112;9.282;2024-03-23T02:56:51;94001.63;;;5.69;74.31
9855;BME280;4966;48.112;9.282;2024-03-23T02:59:17;93988.59;;;5.80;73.37
9855;BME280;4966;48.112;9.282;2024-03-23T03:01:42;93992.91;;;5.72;74.43
9855;BME280;4966;48.112;9.282;2024-03-23T03:04:07;93990.94;;;5.82;74.24
9855;BME280;4966;48.112;9.282;2024-03-23T03:06:33;93986.16;;;5.87;73.85
9855;BME280;4966;48.112;9.282;2024-03-23T03:08:58;93982.03;;;5.99;73.40
9855;BME280;4966;48.112;9.282;2024-03-23T03:11:23;93990.25;;;5.93;73.55
9855;BME280;4966;48.112;9.282;2024-03-23T03:13:49;93998.50;;;6.06;73.54
9855;BME280;4966;48.112;9.282;2024-03-23T03:16:14;93983.78;;;5.94;74.15
9855;BME280;4966;48.112;9.282;2024-03-23T03:18:39;93992.00;;;6.28;73.11
9855;BME280;4966;48.112;9.282;2024-03-23T03:21:08;93983.25;;;6.31;73.28
9855;BME280;4966;48.112;9.282;2024-03-23T03:23:38;93976.56;;;6.37;73.16
9855;BME280;4966;48.112;9.282;2024-03-23T03:26:04;93973.47;;;5.88;74.88
9855;BME280;4966;48.112;9.282;2024-03-23T03:28:31;93984.94;;;5.76;76.02
9855;BME280;4966;48.112;9.282;2024-03-23T03:30:58;93973.59;;;5.91;76.08
9855;BME280;4966;48.112;9.282;2024-03-23T03:33:23;93988.06;;;5.95;77.29
9855;BME280;4966;48.112;9.282;2024-03-23T03:35:48;93987.13;;;6.21;77.20
9855;BME280;4966;48.112;9.282;2024-03-23T03:38:14;93980.81;;;6.38;77.44
9855;BME280;4966;48.112;9.282;2024-03-23T03:40:41;93982.66;;;6.67;76.09
9855;BME280;4966;48.112;9.282;2024-03-23T03:43:06;93979.72;;;6.60;75.67
9855;BME280;4966;48.112;9.282;2024-03-23T03:45:32;93972.19;;;6.45;75.23
9855;BME280;4966;48.112;9.282;2024-03-23T03:47:57;93965.91;;;6.32;74.75
9855;BME280;4966;48.112;9.282;2024-03-23T03:50:22;93959.47;;;6.24;75.13
9855;BME280;4966;48.112;9.282;2024-03-23T03:52:48;93961.22;;;6.20;77.75
9855;BME280;4966;48.112;9.282;2024-03-23T03:55:14;93955.00;;;6.49;76.58
9855;BME280;4966;48.112;9.282;2024-03-23T03:57:39;93951.63;;;6.52;76.36
9855;BME280;4966;48.112;9.282;2024-03-23T04:00:05;93946.97;;;6.62;75.38
9855;BME280;4966;48.112;9.282;2024-03-23T04:02:31;93941.81;;;6.48;75.78
9855;BME280;4966;48.112;9.282;2024-03-23T04:04:56;93932.72;;;6.31;76.34
9855;BME280;4966;48.112;9.282;2024-03-23T04:07:22;93931.34;;;6.25;77.96
9855;BME280;4966;48.112;9.282;2024-03-23T04:09:48;93932.59;;;6.28;79.30
9855;BME280;4966;48.112;9.282;2024-03-23T04:12:14;93923.94;;;6.55;79.23
9855;BME280;4966;48.112;9.282;2024-03-23T04:14:40;93923.22;;;6.67;78.90
9855;BME280;4966;48.112;9.282;2024-03-23T04:17:06;93920.66;;;6.71;79.68
9855;BME280;4966;48.112;9.282;2024-03-23T04:19:31;93911.00;;;6.82;78.88
9855;BME280;4966;48.112;9.282;2024-03-23T04:21:56;93905.66;;;6.94;78.99
9855;BME280;4966;48.112;9.282;2024-03-23T04:24:22;93891.19;;;6.78;78.62
9855;BME280;4966;48.112;9.282;2024-03-23T04:26:47;93884.16;;;6.77;79.04
9855;BME280;4966;48.112;9.282;2024-03-23T04:29:13;93878.31;;;6.75;79.49
9855;BME280;4966;48.112;9.282;2024-03-23T04:31:38;93875.41;;;6.80;80.20
9855;BME280;4966;48.112;9.282;2024-03-23T04:34:04;93871.13;;;6.79;79.36
9855;BME280;4966;48.112;9.282;2024-03-23T04:36:30;93866.97;;;6.81;78.94
9855;BME280;4966;48.112;9.282;2024-03-23T04:38:56;93864.38;;;6.85;77.88
9855;BME280;4966;48.112;9.282;2024-03-23T04:41:22;93848.28;;;6.89;77.14
9855;BME280;4966;48.112;9.282;2024-03-23T04:43:47;93844.84;;;6.67;79.14
9855;BME280;4966;48.112;9.282;2024-03-23T04:46:12;93845.44;;;6.73;79.68
9855;BME280;4966;48.112;9.282;2024-03-23T04:48:38;93844.72;;;6.64;78.86
9855;BME280;4966;48.112;9.282;2024-03-23T04:51:04;93842.34;;;6.62;79.19
9855;BME280;4966;48.112;9.282;2024-03-23T04:53:29;93835.63;;;6.68;79.30
9855;BME280;4966;48.112;9.282;2024-03-23T04:55:58;93837.91;;;6.78;78.44
9855;BME280;4966;48.112;9.282;2024-03-23T04:58:27;93842.28;;;6.71;79.75
9855;BME280;4966;48.112;9.282;2024-03-23T05:00:56;93841.75;;;6.90;79.46
9855;BME280;4966;48.112;9.282;2024-03-23T05:03:23;93843.59;;;7.10;78.97
9855;BME280;4966;48.112;9.282;2024-03-23T05:05:49;93835.00;;;7.08;79.08
9855;BME280;4966;48.112;9.282;2024-03-23T05:08:15;93837.84;;;7.24;78.06
9855;BME280;4966;48.112;9.282;2024-03-23T05:10:42;93833.91;;;7.21;78.50
9855;BME280;4966;48.112;9.282;2024-03-23T05:13:07;93842.94;;;7.38;77.84
9855;BME280;4966;48.112;9.282;2024-03-23T05:15:33;93851.84;;;7.51;77.41
9855;BME280;4966;48.112;9.282;2024-03-23T05:17:58;93841.00;;;7.51;78.88
9855;BME280;4966;48.112;9.282;2024-03-23T05:20:23;93836.50;;;7.55;78.11
9855;BME280;4966;48.112;9.282;2024-03-23T05:22:49;93816.31;;;7.64;78.01
9855;BME280;4966;48.112;9.282;2024-03-23T05:25:15;93822.63;;;7.44;81.00
9855;BME280;4966;48.112;9.282;2024-03-23T05:27:41;93825.47;;;7.60;80.19
9855;BME280;4966;48.112;9.282;2024-03-23T05:30:07;93821.06;;;7.31;82.81
9855;BME280;4966;48.112;9.282;2024-03-23T05:32:32;93837.97;;;7.52;81.29
9855;BME280;4966;48.112;9.282;2024-03-23T05:34:58;93843.94;;;7.58;81.21
9855;BME280;4966;48.112;9.282;2024-03-23T05:37:23;93842.69;;;7.67;80.14
9855;BME280;4966;48.112;9.282;2024-03-23T05:39:49;93844.59;;;7.79;78.49
9855;BME280;4966;48.112;9.282;2024-03-23T05:42:18;93825.69;;;7.67;79.40
9855;BME280;4966;48.112;9.282;2024-03-23T05:44:47;93826.38;;;7.64;79.68
9855;BME280;4966;48.112;9.282;2024-03-23T05:47:12;93846.19;;;7.68;83.38
9855;BME280;4966;48.112;9.282;2024-03-23T05:49:42;93839.94;;;7.92;86.03
9855;BME280;4966;48.112;9.282;2024-03-23T05:52:10;93842.63;;;8.04;83.89
9855;BME280;4966;48.112;9.282;2024-03-23T05:54:37;93838.56;;;8.10;83.77
9855;BME280;4966;48.112;9.282;2024-03-23T05:57:03;93839.22;;;8.20;84.27
9855;BME280;4966;48.112;9.282;2024-03-23T05:59:28;93840.41;;;8.35;84.25
9855;BME280;4966;48.112;9.282;2024-03-23T06:01:54;93835.75;;;8.47;85.59
9855;BME280;4966;48.112;9.282;2024-03-23T06:04:19;93821.06;;;8.77;85.02
9855;BME280;4966;48.112;9.282;2024-03-23T06:06:45;93821.94;;;8.81;84.35
9855;BME280;4966;48.112;9.282;2024-03-23T06:09:10;93826.69;;;8.84;85.00
9855;BME280;4966;48.112;9.282;2024-03-23T06:11:36;93824.94;;;9.07;86.02
9855;BME280;4966;48.112;9.282;2024-03-23T06:14:01;93840.53;;;9.10;87.77
9855;BME280;4966;48.112;9.282;2024-03-23T06:16:26;93833.53;;;9.25;87.52
9855;BME280;4966;48.112;9.282;2024-03-23T06:18:53;93836.88;;;9.34;87.61
9855;BME280;4966;48.112;9.282;2024-03-23T06:21:20;93882.66;;;9.20;89.91
9855;BME280;4966;48.112;9.282;2024-03-23T06:23:46;93847.59;;;8.99;92.79
9855;BME280;4966;48.112;9.282;2024-03-23T06:26:20;93859.47;;;9.54;90.99
9855;BME280;4966;48.112;9.282;2024-03-23T06:28:48;93867.41;;;9.79;90.71
9855;BME280;4966;48.112;9.282;2024-03-23T06:31:14;93890.72;;;9.80;91.45
9855;BME280;4966;48.112;9.282;2024-03-23T06:33:40;93882.81;;;9.91;91.52
9855;BME280;4966;48.112;9.282;2024-03-23T06:36:09;93900.53;;;9.85;92.35
9855;BME280;4966;48.112;9.282;2024-03-23T06:38:35;93882.44;;;10.08;89.96
9855;BME280;4966;48.112;9.282;2024-03-23T06:41:04;93896.38;;;10.07;90.39
9855;BME280;4966;48.112;9.282;2024-03-23T06:43:30;93890.97;;;9.91;91.59
9855;BME280;4966;48.112;9.282;2024-03-23T06:45:55;93899.81;;;9.72;91.29
9855;BME280;4966;48.112;9.282;2024-03-23T06:48:21;93905.88;;;9.81;90.84
9855;BME280;4966;48.112;9.282;2024-03-23T06:50:47;93907.19;;;9.87;89.76
9855;BME280;4966;48.112;9.282;2024-03-23T06:53:13;93905.91;;;10.16;88.82
9855;BME280;4966;48.112;9.282;2024-03-23T06:55:39;93906.22;;;9.79;88.58
9855;BME280;4966;48.112;9.282;2024-03-23T06:58:04;93916.56;;;9.74;87.93
9855;BME280;4966;48.112;9.282;2024-03-23T07:00:30;93920.88;;;9.75;88.21
9855;BME280;4966;48.112;9.282;2024-03-23T07:02:55;93938.28;;;10.06;86.21
9855;BME280;4966;48.112;9.282;2024-03-23T07:05:21;93935.81;;;9.37;88.19
9855;BME280;4966;48.112;9.282;2024-03-23T07:07:46;93942.41;;;9.99;84.38
9855;BME280;4966;48.112;9.282;2024-03-23T07:10:12;93937.31;;;9.34;88.12
9855;BME280;4966;48.112;9.282;2024-03-23T07:12:37;93932.56;;;9.47;87.59
9855;BME280;4966;48.112;9.282;2024-03-23T07:15:03;93944.59;;;9.46;86.46
9855;BME280;4966;48.112;9.282;2024-03-23T07:17:28;93949.75;;;9.51;87.12
9855;BME280;4966;48.112;9.282;2024-03-23T07:19:53;93960.69;;;9.39;86.38
9855;BME280;4966;48.112;9.282;2024-03-23T07:22:19;93964.75;;;8.89;88.94
9855;BME280;4966;48.112;9.282;2024-03-23T07:24:44;93970.56;;;9.31;87.51
9855;BME280;4966;48.112;9.282;2024-03-23T07:27:09;93970.72;;;9.23;88.27
9855;BME280;4966;48.112;9.282;2024-03-23T07:29:36;93958.41;;;9.57;87.73
9855;BME280;4966;48.112;9.282;2024-03-23T07:32:01;93982.84;;;9.41;88.77
9855;BME280;4966;48.112;9.282;2024-03-23T07:34:27;93990.81;;;9.50;88.68
9855;BME280;4966;48.112;9.282;2024-03-23T07:36:52;93989.38;;;9.68;88.26
9855;BME280;4966;48.112;9.282;2024-03-23T07:39:17;94015.38;;;9.53;89.05
9855;BME280;4966;48.112;9.282;2024-03-23T07:41:46;94024.63;;;8.96;86.96
9855;BME280;4966;48.112;9.282;2024-03-23T07:44:11;94052.94;;;8.46;81.62
9855;BME280;4966;48.112;9.282;2024-03-23T07:46:39;94027.38;;;8.84;82.12
9855;BME280;4966;48.112;9.282;2024-03-23T07:49:04;94035.88;;;8.70;81.42
9855;BME280;4966;48.112;9.282;2024-03-23T07:51:30;94041.44;;;9.02;79.69
9855;BME280;4966;48.112;9.282;2024-03-23T07:53:55;94046.00;;;8.85;81.44
9855;BME280;4966;48.112;9.282;2024-03-23T07:56:20;94055.56;;;9.07;80.58
9855;BME280;4966;48.112;9.282;2024-03-23T07:58:46;94062.88;;;9.19;79.53
9855;BME280;4966;48.112;9.282;2024-03-23T08:01:14;94066.09;;;8.97;80.12
9855;BME280;4966;48.112;9.282;2024-03-23T08:03:42;94073.69;;;9.59;78.35
9855;BME280;4966;48.112;9.282;2024-03-23T08:06:13;94078.34;;;9.59;78.74
9855;BME280;4966;48.112;9.282;2024-03-23T08:08:40;94066.91;;;9.66;77.67
9855;BME280;4966;48.112;9.282;2024-03-23T08:11:06;94083.28;;;9.41;76.38
9855;BME280;4966;48.112;9.282;2024-03-23T08:13:31;94081.16;;;9.63;76.04
9855;BME280;4966;48.112;9.282;2024-03-23T08:16:01;94085.44;;;9.92;75.90
9855;BME280;4966;48.112;9.282;2024-03-23T08:18:27;94099.72;;;9.61;76.56
9855;BME280;4966;48.112;9.282;2024-03-23T08:21:00;94103.16;;;9.17;75.74
9855;BME280;4966;48.112;9.282;2024-03-23T08:23:27;94108.59;;;9.45;76.06
9855;BME280;4966;48.112;9.282;2024-03-23T08:25:57;94115.66;;;9.62;77.50
9855;BME280;4966;48.112;9.282;2024-03-23T08:28:23;94125.66;;;9.18;76.86
9855;BME280;4966;48.112;9.282;2024-03-23T08:30:48;94122.63;;;9.47;76.14
9855;BME280;4966;48.112;9.282;2024-03-23T08:33:14;94123.97;;;9.53;73.84
9855;BME280;4966;48.112;9.282;2024-03-23T08:35:41;94146.34;;;8.98;75.53
9855;BME280;4966;48.112;9.282;2024-03-23T08:38:07;94152.25;;;9.52;73.79
9855;BME280;4966;48.112;9.282;2024-03-23T08:40:32;94159.09;;;9.34;73.14
9855;BME280;4966;48.112;9.282;2024-03-23T08:42:57;94171.84;;;9.33;72.28
9855;BME280;4966;48.112;9.282;2024-03-23T08:45:24;94177.16;;;9.42;71.59
9855;BME280;4966;48.112;9.282;2024-03-23T08:47:49;94199.16;;;9.12;72.84
9855;BME280;4966;48.112;9.282;2024-03-23T08:50:15;94206.56;;;9.40;74.07
9855;BME280;4966;48.112;9.282;2024-03-23T08:52:40;94209.09;;;9.08;72.35
9855;BME280;4966;48.112;9.282;2024-03-23T08:55:06;94223.16;;;8.52;72.19
9855;BME280;4966;48.112;9.282;2024-03-23T08:57:31;94234.16;;;8.93;74.43
9855;BME280;4966;48.112;9.282;2024-03-23T08:59:56;94208.25;;;8.59;71.97
9855;BME280;4966;48.112;9.282;2024-03-23T09:02:22;94223.88;;;8.74;73.23
9855;BME280;4966;48.112;9.282;2024-03-23T09:04:47;94234.06;;;9.39;71.43
9855;BME280;4966;48.112;9.282;2024-03-23T09:07:12;94237.13;;;9.25;67.41
9855;BME280;4966;48.112;9.282;2024-03-23T09:09:39;94272.94;;;9.55;70.05
9855;BME280;4966;48.112;9.282;2024-03-23T09:12:05;94274.75;;;9.26;66.39
9855;BME280;4966;48.112;9.282;2024-03-23T09:14:30;94294.97;;;8.80;66.77
9855;BME280;4966;48.112;9.282;2024-03-23T09:16:56;94290.75;;;7.95;68.50
9855;BME280;4966;48.112;9.282;2024-03-23T09:19:21;94287.72;;;8.71;66.95
9855;BME280;4966;48.112;9.282;2024-03-23T09:21:47;94295.25;;;7.91;68.54
9855;BME280;4966;48.112;9.282;2024-03-23T09:24:12;94288.91;;;8.07;67.11
9855;BME280;4966;48.112;9.282;2024-03-23T09:26:37;94308.47;;;7.92;68.12
9855;BME280;4966;48.112;9.282;2024-03-23T09:29:02;94293.88;;;8.26;67.06
9855;BME280;4966;48.112;9.282;2024-03-23T09:31:29;94258.75;;;8.63;65.83
9855;BME280;4966;48.112;9.282;2024-03-23T09:33:54;94256.09;;;9.00;65.61
9855;BME280;4966;48.112;9.282;2024-03-23T09:36:20;94260.63;;;8.84;65.59
9855;BME280;4966;48.112;9.282;2024-03-23T09:38:45;94256.03;;;8.51;67.03
9855;BME280;4966;48.112;9.282;2024-03-23T09:41:11;94245.53;;;8.62;64.08
9855;BME280;4966;48.112;9.282;2024-03-23T09:43:37;94241.16;;;8.69;64.75
9855;BME280;4966;48.112;9.282;2024-03-23T09:46:02;94226.16;;;8.84;62.60
9855;BME280;4966;48.112;9.282;2024-03-23T09:48:28;94228.88;;;9.09;61.51
9855;BME280;4966;48.112;9.282;2024-03-23T09:50:53;94233.97;;;9.23;63.91
9855;BME280;4966;48.112;9.282;2024-03-23T09:53:19;94230.09;;;9.36;61.04
9855;BME280;4966;48.112;9.282;2024-03-23T09:55:44;94237.00;;;9.21;60.68
9855;BME280;4966;48.112;9.282;2024-03-23T09:58:15;94240.72;;;10.06;60.53
9855;BME280;4966;48.112;9.282;2024-03-23T10:00:41;94260.28;;;9.47;61.60
9855;BME280;4966;48.112;9.282;2024-03-23T10:03:06;94246.16;;;8.92;59.99
9855;BME280;4966;48.112;9.282;2024-03-23T10:05:33;94267.03;;;8.67;59.60
9855;BME280;4966;48.112;9.282;2024-03-23T10:10:38;94276.00;;;8.46;59.84
9855;BME280;4966;48.112;9.282;2024-03-23T10:13:03;94260.75;;;9.36;59.55
9855;BME280;4966;48.112;9.282;2024-03-23T10:15:29;94272.50;;;9.28;58.47
9855;BME280;4966;48.112;9.282;2024-03-23T10:17:54;94275.44;;;8.41;57.92
9855;BME280;4966;48.112;9.282;2024-03-23T10:20:23;94276.34;;;9.03;57.46
9855;BME280;4966;48.112;9.282;2024-03-23T10:22:49;94284.25;;;8.96;57.31
9855;BME280;4966;48.112;9.282;2024-03-23T10:25:15;94277.75;;;8.63;57.39
9855;BME280;4966;48.112;9.282;2024-03-23T10:27:41;94283.25;;;9.12;57.49
9855;BME280;4966;48.112;9.282;2024-03-23T10:30:09;94272.28;;;9.33;56.56
9855;BME280;4966;48.112;9.282;2024-03-23T10:32:35;94278.72;;;9.16;58.03
9855;BME280;4966;48.112;9.282;2024-03-23T10:35:14;94277.75;;;9.86;56.05
9855;BME280;4966;48.112;9.282;2024-03-23T10:37:41;94258.03;;;9.12;54.47
9855;BME280;4966;48.112;9.282;2024-03-23T10:40:08;94262.44;;;9.29;55.70
9855;BME280;4966;48.112;9.282;2024-03-23T10:42:34;94257.06;;;9.82;55.75
9855;BME280;4966;48.112;9.282;2024-03-23T10:45:00;94249.69;;;9.94;52.87
9855;BME280;4966;48.112;9.282;2024-03-23T10:47:26;94248.47;;;9.79;51.35
9855;BME280;4966;48.112;9.282;2024-03-23T10:49:51;94269.44;;;9.67;53.55
9855;BME280;4966;48.112;9.282;2024-03-23T10:52:16;94257.25;;;10.01;51.75
9855;BME280;4966;48.112;9.282;2024-03-23T10:54:43;94260.19;;;10.36;50.19
9855;BME280;4966;48.112;9.282;2024-03-23T10:57:13;94260.41;;;10.43;49.54
9855;BME280;4966;48.112;9.282;2024-03-23T10:59:40;94257.19;;;10.70;48.97
9855;BME280;4966;48.112;9.282;2024-03-23T11:02:06;94258.50;;;10.32;46.44
9855;BME280;4966;48.112;9.282;2024-03-23T11:04:35;94266.13;;;9.73;46.55
9855;BME280;4966;48.112;9.282;2024-03-23T11:09:48;94276.13;;;9.32;44.84
9855;BME280;4966;48.112;9.282;2024-03-23T11:14:57;94264.47;;;9.44;45.15
9855;BME280;4966;48.112;9.282;2024-03-23T11:17:25;94271.47;;;9.45;46.08
9855;BME280;4966;48.112;9.282;2024-03-23T11:25:02;94258.63;;;10.63;44.83
9855;BME280;4966;48.112;9.282;2024-03-23T11:27:28;94265.09;;;10.59;44.64
9855;BME280;4966;48.112;9.282;2024-03-23T11:29:53;94274.25;;;10.38;45.18
9855;BME280;4966;48.112;9.282;2024-03-23T11:32:18;94260.66;;;10.82;45.69
9855;BME280;4966;48.112;9.282;2024-03-23T11:34:44;94261.91;;;11.17;45.12
9855;BME280;4966;48.112;9.282;2024-03-23T11:37:09;94249.59;;;10.91;44.84
9855;BME280;4966;48.112;9.282;2024-03-23T11:39:34;94257.84;;;10.95;44.74
9855;BME280;4966;48.112;9.282;2024-03-23T11:42:00;94251.31;;;11.63;42.93
9855;BME280;4966;48.112;9.282;2024-03-23T11:44:26;94253.06;;;12.45;41.51
9855;BME280;4966;48.112;9.282;2024-03-23T11:46:52;94238.81;;;13.44;39.99
9855;BME280;4966;48.112;9.282;2024-03-23T11:49:27;94275.59;;;12.42;40.58
9855;BME280;4966;48.112;9.282;2024-03-23T11:51:54;94269.78;;;12.44;41.18
9855;BME280;4966;48.112;9.282;2024-03-23T11:54:21;94272.88;;;11.20;44.13
9855;BME280;4966;48.112;9.282;2024-03-23T11:57:07;94272.94;;;13.54;43.07
9855;BME280;4966;48.112;9.282;2024-03-23T11:59:40;94289.72;;;15.03;40.51
9855;BME280;4966;48.112;9.282;2024-03-23T12:02:10;94303.25;;;12.21;44.27
9855;BME280;4966;48.112;9.282;2024-03-23T12:04:36;94299.97;;;12.16;45.76
9855;BME280;4966;48.112;9.282;2024-03-23T12:07:15;94309.94;;;13.05;44.10
9855;BME280;4966;48.112;9.282;2024-03-23T12:09:41;94314.41;;;11.17;47.51
9855;BME280;4966;48.112;9.282;2024-03-23T12:12:17;94309.13;;;11.88;47.45
9855;BME280;4966;48.112;9.282;2024-03-23T12:14:43;94305.84;;;10.43;50.99
9855;BME280;4966;48.112;9.282;2024-03-23T12:17:13;94321.69;;;9.88;52.19
9855;BME280;4966;48.112;9.282;2024-03-23T12:19:39;94331.53;;;9.19;54.19
9855;BME280;4966;48.112;9.282;2024-03-23T12:22:06;94326.09;;;9.07;58.15
9855;BME280;4966;48.112;9.282;2024-03-23T12:24:32;94337.91;;;7.43;62.34
9855;BME280;4966;48.112;9.282;2024-03-23T12:27:04;94352.94;;;7.91;64.29
9855;BME280;4966;48.112;9.282;2024-03-23T12:29:31;94379.84;;;7.28;68.23
9855;BME280;4966;48.112;9.282;2024-03-23T12:31:59;94387.00;;;6.59;72.87
9855;BME280;4966;48.112;9.282;2024-03-23T12:34:24;94380.00;;;6.24;72.80
9855;BME280;4966;48.112;9.282;2024-03-23T12:36:50;94378.25;;;6.63;73.59
9855;BME280;4966;48.112;9.282;2024-03-23T12:39:15;94376.31;;;6.80;73.24
9855;BME280;4966;48.112;9.282;2024-03-23T12:41:40;94362.88;;;7.49;70.84
9855;BME280;4966;48.112;9.282;2024-03-23T12:44:06;94356.78;;;7.52;68.31
9855;BME280;4966;48.112;9.282;2024-03-23T12:46:33;94359.38;;;7.48;66.64
9855;BME280;4966;48.112;9.282;2024-03-23T12:48:58;94356.72;;;7.69;65.09
9855;BME280;4966;48.112;9.282;2024-03-23T12:51:24;94346.19;;;7.76;65.37
9855;BME280;4966;48.112;9.282;2024-03-23T12:53:50;94327.34;;;9.22;62.68
9855;BME280;4966;48.112;9.282;2024-03-23T12:56:15;94321.47;;;9.81;58.96
9855;BME280;4966;48.112;9.282;2024-03-23T12:58:40;94320.13;;;9.50;58.82
9855;BME280;4966;48.112;9.282;2024-03-23T13:01:05;94323.06;;;9.33;58.72
9855;BME280;4966;48.112;9.282;2024-03-23T13:03:31;94316.16;;;9.23;55.56
9855;BME280;4966;48.112;9.282;2024-03-23T13:05:56;94300.63;;;9.85;53.54
9855;BME280;4966;48.112;9.282;2024-03-23T13:08:22;94299.78;;;10.09;51.69
9855;BME280;4966;48.112;9.282;2024-03-23T13:10:51;94320.44;;;9.86;50.41
9855;BME280;4966;48.112;9.282;2024-03-23T13:13:17;94309.06;;;10.61;50.26
9855;BME280;4966;48.112;9.282;2024-03-23T13:15:42;94299.84;;;10.37;49.28
9855;BME280;4966;48.112;9.282;2024-03-23T13:18:15;94322.88;;;8.80;49.80
9855;BME280;4966;48.112;9.282;2024-03-23T13:20:40;94308.91;;;8.36;51.20
9855;BME280;4966;48.112;9.282;2024-03-23T13:23:05;94309.81;;;8.07;51.78
9855;BME280;4966;48.112;9.282;2024-03-23T13:25:31;94300.97;;;8.52;51.84
9855;BME280;4966;48.112;9.282;2024-03-23T13:27:56;94287.03;;;8.75;51.06
9855;BME280;4966;48.112;9.282;2024-03-23T13:30:22;94272.19;;;9.18;50.42
9855;BME280;4966;48.112;9.282;2024-03-23T13:32:47;94276.31;;;9.76;48.78
9855;BME280;4966;48.112;9.282;2024-03-23T13:35:12;94281.91;;;10.49;47.91
9855;BME280;4966;48.112;9.282;2024-03-23T13:37:38;94272.69;;;10.53;46.59
9855;BME280;4966;48.112;9.282;2024-03-23T13:40:04;94244.06;;;11.35;44.52
9855;BME280;4966;48.112;9.282;2024-03-23T13:42:31;94262.81;;;10.77;45.28
9855;BME280;4966;48.112;9.282;2024-03-23T13:44:56;94258.09;;;9.89;46.25
9855;BME280;4966;48.112;9.282;2024-03-23T13:47:21;94247.94;;;9.62;46.81
9855;BME280;4966;48.112;9.282;2024-03-23T13:49:47;94231.00;;;9.40;46.77
9855;BME280;4966;48.112;9.282;2024-03-23T13:52:14;94234.41;;;9.37;47.28
9855;BME280;4966;48.112;9.282;2024-03-23T13:54:39;94226.47;;;10.25;46.60
9855;BME280;4966;48.112;9.282;2024-03-23T13:57:10;94228.69;;;10.79;45.00
9855;BME280;4966;48.112;9.282;2024-03-23T13:59:36;94227.25;;;9.97;45.71
9855;BME280;4966;48.112;9.282;2024-03-23T14:02:01;94228.00;;;10.82;45.04
9855;BME280;4966;48.112;9.282;2024-03-23T14:04:27;94208.94;;;10.98;42.21
9855;BME280;4966;48.112;9.282;2024-03-23T14:06:52;94207.09;;;11.18;40.94
9855;BME280;4966;48.112;9.282;2024-03-23T14:09:17;94215.59;;;12.03;39.54
9855;BME280;4966;48.112;9.282;2024-03-23T14:11:48;94214.75;;;12.19;38.42
9855;BME280;4966;48.112;9.282;2024-03-23T14:14:14;94208.72;;;12.94;37.29
9855;BME280;4966;48.112;9.282;2024-03-23T14:16:43;94185.59;;;13.61;35.27
9855;BME280;4966;48.112;9.282;2024-03-23T14:19:09;94195.00;;;12.68;36.77
9855;BME280;4966;48.112;9.282;2024-03-23T14:21:34;94189.56;;;15.02;35.01
9855;BME280;4966;48.112;9.282;2024-03-23T14:24:00;94188.47;;;14.02;36.30
9855;BME280;4966;48.112;9.282;2024-03-23T14:26:26;94198.72;;;12.37;37.65
9855;BME280;4966;48.112;9.282;2024-03-23T14:28:52;94189.50;;;11.32;39.84
9855;BME280;4966;48.112;9.282;2024-03-23T14:31:17;94188.56;;;10.60;41.28